Allen, Alabama
Current Conditions -  °F | °C
As of 3:53 PM on Thursday 18 Dec 2014 (Local Time) from KGZH Reporting Station
Broken Clouds Broken Clouds  
Wind Chill: 64°   Ceiling: 11000
Heat Index: 64°   Visibility: 10mi
Dew Point: 35°   Wind: 3mph
Humidity: 34%   Direction: 10°N
Pressure: 30.12"   Gusts: NA
Location:  31.6°N, 87.71°W
Report Text: KGZH 182153Z AUTO 01003KT 10SM BKN110 18/02 A3012 RMK AO2 SLP200 T01780017
Loading
Personal Weather Stations






























Interactive Weather Map New forecast layout! Learn more

10-Day Weather Forecast

Advertisements
Track Severe Weather on mobile